sensor_id;sensor_type;location;lat;lon;timestamp;P1;durP1;ratioP1;P2;durP2;ratioP2
19223;SDS011;9746;47.180;9.776;2023-04-15T05:40:13;0.30;;;0.30;;
19223;SDS011;9746;47.180;9.776;2023-04-15T05:42:40;0.30;;;0.30;;
19223;SDS011;9746;47.180;9.776;2023-04-15T05:47:56;0.30;;;0.30;;
19223;SDS011;9746;47.180;9.776;2023-04-15T05:50:41;0.23;;;0.23;;
19223;SDS011;9746;47.180;9.776;2023-04-15T05:53:09;0.20;;;0.20;;
19223;SDS011;9746;47.180;9.776;2023-04-15T05:58:10;0.23;;;0.23;;
19223;SDS011;9746;47.180;9.776;2023-04-15T06:03:08;0.30;;;0.30;;
19223;SDS011;9746;47.180;9.776;2023-04-15T06:08:46;0.20;;;0.20;;
19223;SDS011;9746;47.180;9.776;2023-04-15T06:11:20;0.20;;;0.20;;
19223;SDS011;9746;47.180;9.776;2023-04-15T06:13:48;0.30;;;0.30;;
19223;SDS011;9746;47.180;9.776;2023-04-15T06:18:48;0.20;;;0.20;;
19223;SDS011;9746;47.180;9.776;2023-04-15T06:23:55;0.27;;;0.27;;
19223;SDS011;9746;47.180;9.776;2023-04-15T06:26:31;0.30;;;0.30;;
19223;SDS011;9746;47.180;9.776;2023-04-15T06:28:58;0.20;;;0.20;;
19223;SDS011;9746;47.180;9.776;2023-04-15T06:34:04;0.30;;;0.30;;
19223;SDS011;9746;47.180;9.776;2023-04-15T06:36:32;0.30;;;0.30;;
19223;SDS011;9746;47.180;9.776;2023-04-15T06:38:59;0.20;;;0.20;;
19223;SDS011;9746;47.180;9.776;2023-04-15T06:41:28;0.20;;;0.20;;
19223;SDS011;9746;47.180;9.776;2023-04-15T06:43:58;0.23;;;0.23;;
19223;SDS011;9746;47.180;9.776;2023-04-15T06:49:10;0.30;;;0.30;;
19223;SDS011;9746;47.180;9.776;2023-04-15T06:51:39;0.20;;;0.20;;
19223;SDS011;9746;47.180;9.776;2023-04-15T06:54:07;0.20;;;0.20;;
19223;SDS011;9746;47.180;9.776;2023-04-15T06:56:36;0.20;;;0.20;;
19223;SDS011;9746;47.180;9.776;2023-04-15T06:59:04;0.30;;;0.30;;
19223;SDS011;9746;47.180;9.776;2023-04-15T07:01:32;0.20;;;0.20;;
19223;SDS011;9746;47.180;9.776;2023-04-15T07:04:00;0.27;;;0.27;;
19223;SDS011;9746;47.180;9.776;2023-04-15T07:06:28;0.20;;;0.20;;
19223;SDS011;9746;47.180;9.776;2023-04-15T07:08:56;0.20;;;0.20;;
19223;SDS011;9746;47.180;9.776;2023-04-15T07:14:31;0.20;;;0.20;;
19223;SDS011;9746;47.180;9.776;2023-04-15T07:16:59;0.20;;;0.20;;
19223;SDS011;9746;47.180;9.776;2023-04-15T07:19:26;0.30;;;0.30;;
19223;SDS011;9746;47.180;9.776;2023-04-15T07:21:56;0.30;;;0.30;;
19223;SDS011;9746;47.180;9.776;2023-04-15T07:24:23;0.30;;;0.30;;
19223;SDS011;9746;47.180;9.776;2023-04-15T07:29:28;0.20;;;0.20;;
19223;SDS011;9746;47.180;9.776;2023-04-15T07:34:44;0.20;;;0.20;;
19223;SDS011;9746;47.180;9.776;2023-04-15T07:37:12;0.20;;;0.20;;
19223;SDS011;9746;47.180;9.776;2023-04-15T07:39:40;0.20;;;0.20;;
19223;SDS011;9746;47.180;9.776;2023-04-15T07:48:05;0.20;;;0.20;;
19223;SDS011;9746;47.180;9.776;2023-04-15T07:53:09;0.30;;;0.30;;
19223;SDS011;9746;47.180;9.776;2023-04-15T07:55:49;0.20;;;0.20;;
19223;SDS011;9746;47.180;9.776;2023-04-15T07:58:17;0.20;;;0.20;;
19223;SDS011;9746;47.180;9.776;2023-04-15T08:03:17;0.20;;;0.20;;
19223;SDS011;9746;47.180;9.776;2023-04-15T08:08:24;0.20;;;0.20;;
19223;SDS011;9746;47.180;9.776;2023-04-15T08:16:45;0.20;;;0.20;;
19223;SDS011;9746;47.180;9.776;2023-04-15T08:19:14;0.20;;;0.20;;
19223;SDS011;9746;47.180;9.776;2023-04-15T08:24:13;0.20;;;0.20;;
19223;SDS011;9746;47.180;9.776;2023-04-15T08:29:39;0.20;;;0.20;;
19223;SDS011;9746;47.180;9.776;2023-04-15T08:32:14;0.20;;;0.20;;
19223;SDS011;9746;47.180;9.776;2023-04-15T08:34:45;0.20;;;0.20;;
19223;SDS011;9746;47.180;9.776;2023-04-15T08:37:14;0.20;;;0.20;;
19223;SDS011;9746;47.180;9.776;2023-04-15T08:39:42;0.20;;;0.20;;
19223;SDS011;9746;47.180;9.776;2023-04-15T08:44:44;0.20;;;0.20;;
19223;SDS011;9746;47.180;9.776;2023-04-15T08:50:03;0.20;;;0.20;;
19223;SDS011;9746;47.180;9.776;2023-04-15T08:52:41;0.10;;;0.10;;
19223;SDS011;9746;47.180;9.776;2023-04-15T08:55:08;0.20;;;0.20;;
19223;SDS011;9746;47.180;9.776;2023-04-15T09:00:17;0.13;;;0.13;;
19223;SDS011;9746;47.180;9.776;2023-04-15T09:02:45;0.10;;;0.10;;
19223;SDS011;9746;47.180;9.776;2023-04-15T09:05:15;0.13;;;0.13;;
19223;SDS011;9746;47.180;9.776;2023-04-15T09:07:43;0.10;;;0.10;;
19223;SDS011;9746;47.180;9.776;2023-04-15T09:10:11;0.20;;;0.20;;
19223;SDS011;9746;47.180;9.776;2023-04-15T09:12:40;0.20;;;0.20;;
19223;SDS011;9746;47.180;9.776;2023-04-15T09:15:10;0.10;;;0.10;;
19223;SDS011;9746;47.180;9.776;2023-04-15T09:17:41;0.20;;;0.20;;
19223;SDS011;9746;47.180;9.776;2023-04-15T09:20:10;0.10;;;0.10;;
19223;SDS011;9746;47.180;9.776;2023-04-15T09:22:45;0.10;;;0.10;;
19223;SDS011;9746;47.180;9.776;2023-04-15T09:25:27;0.10;;;0.10;;
19223;SDS011;9746;47.180;9.776;2023-04-15T09:27:58;0.05;;;0.05;;
19223;SDS011;9746;47.180;9.776;2023-04-15T09:30:27;0.20;;;0.20;;
19223;SDS011;9746;47.180;9.776;2023-04-15T09:32:56;0.10;;;0.10;;
19223;SDS011;9746;47.180;9.776;2023-04-15T09:35:26;0.10;;;0.10;;
19223;SDS011;9746;47.180;9.776;2023-04-15T09:38:02;0.10;;;0.10;;
19223;SDS011;9746;47.180;9.776;2023-04-15T09:40:32;0.10;;;0.10;;
19223;SDS011;9746;47.180;9.776;2023-04-15T09:43:01;0.10;;;0.10;;
19223;SDS011;9746;47.180;9.776;2023-04-15T09:45:30;0.10;;;0.10;;
19223;SDS011;9746;47.180;9.776;2023-04-15T09:50:56;0.10;;;0.10;;
19223;SDS011;9746;47.180;9.776;2023-04-15T09:53:27;0.10;;;0.10;;
19223;SDS011;9746;47.180;9.776;2023-04-15T09:55:55;0.10;;;0.10;;
19223;SDS011;9746;47.180;9.776;2023-04-15T09:58:25;0.10;;;0.10;;
19223;SDS011;9746;47.180;9.776;2023-04-15T10:00:57;0.20;;;0.20;;
19223;SDS011;9746;47.180;9.776;2023-04-15T10:03:26;0.10;;;0.10;;
19223;SDS011;9746;47.180;9.776;2023-04-15T10:05:56;0.10;;;0.10;;
19223;SDS011;9746;47.180;9.776;2023-04-15T10:08:27;0.10;;;0.10;;
19223;SDS011;9746;47.180;9.776;2023-04-15T10:11:01;0.10;;;0.10;;
19223;SDS011;9746;47.180;9.776;2023-04-15T10:13:29;0.10;;;0.10;;
19223;SDS011;9746;47.180;9.776;2023-04-15T10:16:03;0.10;;;0.10;;
19223;SDS011;9746;47.180;9.776;2023-04-15T10:18:34;0.10;;;0.10;;
19223;SDS011;9746;47.180;9.776;2023-04-15T10:21:03;0.10;;;0.10;;
19223;SDS011;9746;47.180;9.776;2023-04-15T10:23:34;0.10;;;0.10;;
19223;SDS011;9746;47.180;9.776;2023-04-15T10:26:03;0.10;;;0.10;;
19223;SDS011;9746;47.180;9.776;2023-04-15T10:28:32;0.10;;;0.10;;
19223;SDS011;9746;47.180;9.776;2023-04-15T10:31:00;0.10;;;0.10;;
19223;SDS011;9746;47.180;9.776;2023-04-15T10:36:18;0.10;;;0.10;;
19223;SDS011;9746;47.180;9.776;2023-04-15T10:38:48;0.10;;;0.10;;
19223;SDS011;9746;47.180;9.776;2023-04-15T10:41:17;0.10;;;0.10;;
19223;SDS011;9746;47.180;9.776;2023-04-15T10:43:47;0.10;;;0.10;;
19223;SDS011;9746;47.180;9.776;2023-04-15T10:46:23;0.10;;;0.10;;
19223;SDS011;9746;47.180;9.776;2023-04-15T10:49:05;0.10;;;0.10;;
19223;SDS011;9746;47.180;9.776;2023-04-15T10:51:42;0.10;;;0.10;;
19223;SDS011;9746;47.180;9.776;2023-04-15T10:54:14;0.10;;;0.10;;
19223;SDS011;9746;47.180;9.776;2023-04-15T10:56:44;0.10;;;0.10;;
19223;SDS011;9746;47.180;9.776;2023-04-15T10:59:16;0.10;;;0.10;;
19223;SDS011;9746;47.180;9.776;2023-04-15T11:01:52;0.10;;;0.10;;
19223;SDS011;9746;47.180;9.776;2023-04-15T11:10:55;0.10;;;0.10;;
19223;SDS011;9746;47.180;9.776;2023-04-15T11:13:28;0.10;;;0.10;;
19223;SDS011;9746;47.180;9.776;2023-04-15T11:16:00;0.10;;;0.10;;
19223;SDS011;9746;47.180;9.776;2023-04-15T11:21:34;0.10;;;0.10;;
19223;SDS011;9746;47.180;9.776;2023-04-15T11:24:02;0.10;;;0.10;;
19223;SDS011;9746;47.180;9.776;2023-04-15T11:26:31;0.10;;;0.10;;
19223;SDS011;9746;47.180;9.776;2023-04-15T11:28:59;0.10;;;0.10;;
19223;SDS011;9746;47.180;9.776;2023-04-15T11:31:29;0.10;;;0.10;;
19223;SDS011;9746;47.180;9.776;2023-04-15T11:33:58;0.10;;;0.10;;
19223;SDS011;9746;47.180;9.776;2023-04-15T11:36:27;0.10;;;0.10;;
19223;SDS011;9746;47.180;9.776;2023-04-15T11:38:57;0.10;;;0.10;;
19223;SDS011;9746;47.180;9.776;2023-04-15T11:41:34;0.10;;;0.10;;
19223;SDS011;9746;47.180;9.776;2023-04-15T11:44:02;0.10;;;0.10;;
19223;SDS011;9746;47.180;9.776;2023-04-15T11:46:42;0.10;;;0.10;;
19223;SDS011;9746;47.180;9.776;2023-04-15T11:49:11;0.10;;;0.10;;
19223;SDS011;9746;47.180;9.776;2023-04-15T11:54:38;0.10;;;0.10;;
19223;SDS011;9746;47.180;9.776;2023-04-15T12:03:36;0.20;;;0.20;;
19223;SDS011;9746;47.180;9.776;2023-04-15T12:06:13;0.20;;;0.20;;
19223;SDS011;9746;47.180;9.776;2023-04-15T12:11:45;0.10;;;0.10;;
19223;SDS011;9746;47.180;9.776;2023-04-15T12:14:23;0.20;;;0.20;;
19223;SDS011;9746;47.180;9.776;2023-04-15T12:17:01;0.10;;;0.10;;
19223;SDS011;9746;47.180;9.776;2023-04-15T12:19:34;0.20;;;0.20;;
19223;SDS011;9746;47.180;9.776;2023-04-15T12:22:19;0.20;;;0.20;;
19223;SDS011;9746;47.180;9.776;2023-04-15T12:24:53;0.20;;;0.20;;
19223;SDS011;9746;47.180;9.776;2023-04-15T12:27:34;0.10;;;0.10;;
19223;SDS011;9746;47.180;9.776;2023-04-15T12:30:05;0.20;;;0.20;;
19223;SDS011;9746;47.180;9.776;2023-04-15T12:35:14;0.20;;;0.20;;
19223;SDS011;9746;47.180;9.776;2023-04-15T12:37:48;0.20;;;0.20;;
19223;SDS011;9746;47.180;9.776;2023-04-15T12:40:20;0.20;;;0.20;;
19223;SDS011;9746;47.180;9.776;2023-04-15T12:45:22;0.20;;;0.20;;
19223;SDS011;9746;47.180;9.776;2023-04-15T12:50:40;0.20;;;0.20;;
19223;SDS011;9746;47.180;9.776;2023-04-15T12:56:06;0.10;;;0.10;;
19223;SDS011;9746;47.180;9.776;2023-04-15T12:58:35;0.20;;;0.20;;
19223;SDS011;9746;47.180;9.776;2023-04-15T13:01:03;0.20;;;0.20;;
19223;SDS011;9746;47.180;9.776;2023-04-15T13:06:39;0.20;;;0.20;;
19223;SDS011;9746;47.180;9.776;2023-04-15T13:12:01;0.10;;;0.10;;
19223;SDS011;9746;47.180;9.776;2023-04-15T13:14:30;0.17;;;0.17;;
19223;SDS011;9746;47.180;9.776;2023-04-15T13:16:58;0.13;;;0.13;;
19223;SDS011;9746;47.180;9.776;2023-04-15T13:19:26;0.10;;;0.10;;
19223;SDS011;9746;47.180;9.776;2023-04-15T13:22:02;0.13;;;0.13;;
19223;SDS011;9746;47.180;9.776;2023-04-15T13:24:40;0.20;;;0.20;;
19223;SDS011;9746;47.180;9.776;2023-04-15T13:27:09;0.10;;;0.10;;
19223;SDS011;9746;47.180;9.776;2023-04-15T13:29:46;0.20;;;0.20;;
19223;SDS011;9746;47.180;9.776;2023-04-15T13:32:16;0.10;;;0.10;;
19223;SDS011;9746;47.180;9.776;2023-04-15T13:34:45;0.20;;;0.20;;
19223;SDS011;9746;47.180;9.776;2023-04-15T13:37:18;0.20;;;0.20;;
19223;SDS011;9746;47.180;9.776;2023-04-15T13:39:55;0.20;;;0.20;;
19223;SDS011;9746;47.180;9.776;2023-04-15T13:42:23;0.30;;;0.30;;
19223;SDS011;9746;47.180;9.776;2023-04-15T13:44:56;0.20;;;0.20;;
19223;SDS011;9746;47.180;9.776;2023-04-15T13:47:31;0.20;;;0.20;;
19223;SDS011;9746;47.180;9.776;2023-04-15T13:49:58;0.20;;;0.20;;
19223;SDS011;9746;47.180;9.776;2023-04-15T13:52:29;0.10;;;0.10;;
19223;SDS011;9746;47.180;9.776;2023-04-15T13:55:00;0.17;;;0.17;;
19223;SDS011;9746;47.180;9.776;2023-04-15T13:57:31;0.13;;;0.13;;
19223;SDS011;9746;47.180;9.776;2023-04-15T13:59:59;0.20;;;0.20;;
19223;SDS011;9746;47.180;9.776;2023-04-15T14:02:26;0.20;;;0.20;;
19223;SDS011;9746;47.180;9.776;2023-04-15T14:05:06;0.20;;;0.20;;
19223;SDS011;9746;47.180;9.776;2023-04-15T14:10:27;0.20;;;0.20;;
19223;SDS011;9746;47.180;9.776;2023-04-15T14:13:12;0.10;;;0.10;;
19223;SDS011;9746;47.180;9.776;2023-04-15T14:15:40;0.20;;;0.20;;
19223;SDS011;9746;47.180;9.776;2023-04-15T14:18:24;0.20;;;0.20;;
19223;SDS011;9746;47.180;9.776;2023-04-15T14:20:54;0.20;;;0.20;;
19223;SDS011;9746;47.180;9.776;2023-04-15T14:23:24;0.10;;;0.10;;
19223;SDS011;9746;47.180;9.776;2023-04-15T14:25:53;0.10;;;0.10;;
19223;SDS011;9746;47.180;9.776;2023-04-15T14:28:24;0.10;;;0.10;;
19223;SDS011;9746;47.180;9.776;2023-04-15T14:30:53;0.10;;;0.10;;
19223;SDS011;9746;47.180;9.776;2023-04-15T14:33:22;0.10;;;0.10;;
19223;SDS011;9746;47.180;9.776;2023-04-15T14:35:50;0.10;;;0.10;;
19223;SDS011;9746;47.180;9.776;2023-04-15T14:38:17;0.10;;;0.10;;
19223;SDS011;9746;47.180;9.776;2023-04-15T14:40:49;0.10;;;0.10;;
19223;SDS011;9746;47.180;9.776;2023-04-15T14:43:19;0.20;;;0.20;;
19223;SDS011;9746;47.180;9.776;2023-04-15T14:45:48;0.13;;;0.13;;
19223;SDS011;9746;47.180;9.776;2023-04-15T14:50:50;0.10;;;0.10;;
19223;SDS011;9746;47.180;9.776;2023-04-15T14:53:21;0.10;;;0.10;;
19223;SDS011;9746;47.180;9.776;2023-04-15T14:55:53;0.10;;;0.10;;
19223;SDS011;9746;47.180;9.776;2023-04-15T15:00:53;0.10;;;0.10;;
19223;SDS011;9746;47.180;9.776;2023-04-15T15:06:24;0.10;;;0.10;;
19223;SDS011;9746;47.180;9.776;2023-04-15T15:09:04;0.20;;;0.20;;
19223;SDS011;9746;47.180;9.776;2023-04-15T15:11:33;0.20;;;0.20;;
19223;SDS011;9746;47.180;9.776;2023-04-15T15:17:15;0.20;;;0.20;;
19223;SDS011;9746;47.180;9.776;2023-04-15T15:22:45;0.10;;;0.10;;
19223;SDS011;9746;47.180;9.776;2023-04-15T15:31:01;0.20;;;0.20;;
19223;SDS011;9746;47.180;9.776;2023-04-15T15:36:13;0.20;;;0.20;;
19223;SDS011;9746;47.180;9.776;2023-04-15T15:38:48;0.20;;;0.20;;
19223;SDS011;9746;47.180;9.776;2023-04-15T15:41:15;0.20;;;0.20;;
19223;SDS011;9746;47.180;9.776;2023-04-15T15:43:53;0.20;;;0.20;;
19223;SDS011;9746;47.180;9.776;2023-04-15T15:46:20;0.20;;;0.20;;
19223;SDS011;9746;47.180;9.776;2023-04-15T15:51:39;0.10;;;0.10;;
19223;SDS011;9746;47.180;9.776;2023-04-15T15:56:45;0.20;;;0.20;;
19223;SDS011;9746;47.180;9.776;2023-04-15T15:59:15;0.10;;;0.10;;
19223;SDS011;9746;47.180;9.776;2023-04-15T16:01:43;0.20;;;0.20;;
19223;SDS011;9746;47.180;9.776;2023-04-15T16:07:00;0.20;;;0.20;;
19223;SDS011;9746;47.180;9.776;2023-04-15T16:12:30;0.10;;;0.10;;
19223;SDS011;9746;47.180;9.776;2023-04-15T16:18:04;0.20;;;0.20;;
19223;SDS011;9746;47.180;9.776;2023-04-15T16:23:09;0.15;;;0.15;;
19223;SDS011;9746;47.180;9.776;2023-04-15T16:25:51;0.20;;;0.20;;
19223;SDS011;9746;47.180;9.776;2023-04-15T16:28:20;0.15;;;0.15;;
19223;SDS011;9746;47.180;9.776;2023-04-15T16:30:59;0.20;;;0.20;;
19223;SDS011;9746;47.180;9.776;2023-04-15T16:36:36;0.20;;;0.20;;
19223;SDS011;9746;47.180;9.776;2023-04-15T16:39:06;0.20;;;0.20;;
19223;SDS011;9746;47.180;9.776;2023-04-15T16:41:33;0.20;;;0.20;;
19223;SDS011;9746;47.180;9.776;2023-04-15T16:47:08;0.20;;;0.20;;
19223;SDS011;9746;47.180;9.776;2023-04-15T16:49:54;0.20;;;0.20;;
19223;SDS011;9746;47.180;9.776;2023-04-15T16:52:24;0.20;;;0.20;;
19223;SDS011;9746;47.180;9.776;2023-04-15T16:54:56;0.20;;;0.20;;
19223;SDS011;9746;47.180;9.776;2023-04-15T16:57:25;0.20;;;0.20;;
19223;SDS011;9746;47.180;9.776;2023-04-15T17:02:53;0.20;;;0.20;;
19223;SDS011;9746;47.180;9.776;2023-04-15T17:08:07;0.20;;;0.20;;
19223;SDS011;9746;47.180;9.776;2023-04-15T17:10:43;0.20;;;0.20;;
19223;SDS011;9746;47.180;9.776;2023-04-15T17:13:11;0.20;;;0.20;;
19223;SDS011;9746;47.180;9.776;2023-04-15T17:18:17;0.20;;;0.20;;
19223;SDS011;9746;47.180;9.776;2023-04-15T17:24:07;0.20;;;0.20;;
19223;SDS011;9746;47.180;9.776;2023-04-15T17:26:36;0.17;;;0.17;;
19223;SDS011;9746;47.180;9.776;2023-04-15T17:29:18;0.20;;;0.20;;
19223;SDS011;9746;47.180;9.776;2023-04-15T17:31:48;0.20;;;0.20;;
19223;SDS011;9746;47.180;9.776;2023-04-15T17:34:18;0.20;;;0.20;;
19223;SDS011;9746;47.180;9.776;2023-04-15T17:36:46;0.20;;;0.20;;
19223;SDS011;9746;47.180;9.776;2023-04-15T17:39:15;0.20;;;0.20;;
19223;SDS011;9746;47.180;9.776;2023-04-15T17:41:43;0.20;;;0.20;;
19223;SDS011;9746;47.180;9.776;2023-04-15T17:44:10;0.20;;;0.20;;
19223;SDS011;9746;47.180;9.776;2023-04-15T17:46:38;0.20;;;0.20;;
19223;SDS011;9746;47.180;9.776;2023-04-15T17:49:06;0.20;;;0.20;;
19223;SDS011;9746;47.180;9.776;2023-04-15T17:51:35;0.20;;;0.20;;
19223;SDS011;9746;47.180;9.776;2023-04-15T17:54:02;0.20;;;0.20;;
19223;SDS011;9746;47.180;9.776;2023-04-15T17:56:30;0.20;;;0.20;;
19223;SDS011;9746;47.180;9.776;2023-04-15T17:58:58;0.20;;;0.20;;
19223;SDS011;9746;47.180;9.776;2023-04-15T18:01:40;0.20;;;0.20;;
19223;SDS011;9746;47.180;9.776;2023-04-15T18:04:09;0.20;;;0.20;;
19223;SDS011;9746;47.180;9.776;2023-04-15T18:06:38;0.20;;;0.20;;
19223;SDS011;9746;47.180;9.776;2023-04-15T18:09:05;0.20;;;0.20;;
19223;SDS011;9746;47.180;9.776;2023-04-15T18:11:44;0.20;;;0.20;;
19223;SDS011;9746;47.180;9.776;2023-04-15T18:14:12;0.20;;;0.20;;
19223;SDS011;9746;47.180;9.776;2023-04-15T18:19:13;0.20;;;0.20;;
19223;SDS011;9746;47.180;9.776;2023-04-15T18:21:45;0.30;;;0.30;;
19223;SDS011;9746;47.180;9.776;2023-04-15T18:24:12;0.20;;;0.20;;
19223;SDS011;9746;47.180;9.776;2023-04-15T18:26:47;0.30;;;0.30;;
19223;SDS011;9746;47.180;9.776;2023-04-15T18:29:14;0.20;;;0.20;;
19223;SDS011;9746;47.180;9.776;2023-04-15T18:31:53;0.20;;;0.20;;
19223;SDS011;9746;47.180;9.776;2023-04-15T18:34:22;0.20;;;0.20;;
19223;SDS011;9746;47.180;9.776;2023-04-15T18:36:56;0.20;;;0.20;;
19223;SDS011;9746;47.180;9.776;2023-04-15T18:39:24;0.20;;;0.20;;
19223;SDS011;9746;47.180;9.776;2023-04-15T18:41:54;0.33;;;0.33;;
19223;SDS011;9746;47.180;9.776;2023-04-15T18:44:22;0.20;;;0.20;;
19223;SDS011;9746;47.180;9.776;2023-04-15T18:46:50;0.20;;;0.20;;
19223;SDS011;9746;47.180;9.776;2023-04-15T18:49:17;0.30;;;0.30;;
19223;SDS011;9746;47.180;9.776;2023-04-15T18:51:46;0.20;;;0.20;;
19223;SDS011;9746;47.180;9.776;2023-04-15T18:54:15;0.20;;;0.20;;
19223;SDS011;9746;47.180;9.776;2023-04-15T18:56:49;0.30;;;0.30;;
19223;SDS011;9746;47.180;9.776;2023-04-15T18:59:16;0.20;;;0.20;;
19223;SDS011;9746;47.180;9.776;2023-04-15T19:01:44;0.20;;;0.20;;
19223;SDS011;9746;47.180;9.776;2023-04-15T19:04:11;0.20;;;0.20;;
19223;SDS011;9746;47.180;9.776;2023-04-15T19:09:37;0.20;;;0.20;;
19223;SDS011;9746;47.180;9.776;2023-04-15T19:12:05;0.30;;;0.30;;
19223;SDS011;9746;47.180;9.776;2023-04-15T19:14:32;0.30;;;0.30;;
19223;SDS011;9746;47.180;9.776;2023-04-15T19:17:03;0.27;;;0.27;;
19223;SDS011;9746;47.180;9.776;2023-04-15T19:19:30;0.30;;;0.30;;
19223;SDS011;9746;47.180;9.776;2023-04-15T19:24:29;0.20;;;0.20;;
19223;SDS011;9746;47.180;9.776;2023-04-15T19:27:11;0.20;;;0.20;;
19223;SDS011;9746;47.180;9.776;2023-04-15T19:29:39;0.20;;;0.20;;
19223;SDS011;9746;47.180;9.776;2023-04-15T19:32:16;0.20;;;0.20;;
19223;SDS011;9746;47.180;9.776;2023-04-15T19:34:44;0.30;;;0.30;;
19223;SDS011;9746;47.180;9.776;2023-04-15T19:37:14;0.30;;;0.30;;
19223;SDS011;9746;47.180;9.776;2023-04-15T19:39:43;0.20;;;0.20;;
19223;SDS011;9746;47.180;9.776;2023-04-15T19:42:14;0.23;;;0.23;;
19223;SDS011;9746;47.180;9.776;2023-04-15T19:44:45;0.30;;;0.30;;
19223;SDS011;9746;47.180;9.776;2023-04-15T19:50:19;0.30;;;0.30;;
19223;SDS011;9746;47.180;9.776;2023-04-15T19:52:50;0.20;;;0.20;;
19223;SDS011;9746;47.180;9.776;2023-04-15T19:58:09;0.20;;;0.20;;
19223;SDS011;9746;47.180;9.776;2023-04-15T20:03:25;0.20;;;0.20;;
19223;SDS011;9746;47.180;9.776;2023-04-15T20:05:52;0.30;;;0.30;;
19223;SDS011;9746;47.180;9.776;2023-04-15T20:08:19;0.30;;;0.30;;
19223;SDS011;9746;47.180;9.776;2023-04-15T20:10:48;0.20;;;0.20;;
19223;SDS011;9746;47.180;9.776;2023-04-15T20:13:17;0.20;;;0.20;;
19223;SDS011;9746;47.180;9.776;2023-04-15T20:18:15;0.20;;;0.20;;
19223;SDS011;9746;47.180;9.776;2023-04-15T20:23:19;0.30;;;0.30;;
19223;SDS011;9746;47.180;9.776;2023-04-15T20:25:48;0.30;;;0.30;;
19223;SDS011;9746;47.180;9.776;2023-04-15T20:28:18;0.30;;;0.30;;
19223;SDS011;9746;47.180;9.776;2023-04-15T20:30:47;0.20;;;0.20;;
19223;SDS011;9746;47.180;9.776;2023-04-15T20:35:55;0.30;;;0.30;;
19223;SDS011;9746;47.180;9.776;2023-04-15T20:38:23;0.27;;;0.27;;
19223;SDS011;9746;47.180;9.776;2023-04-15T20:40:51;0.30;;;0.30;;
19223;SDS011;9746;47.180;9.776;2023-04-15T20:43:20;0.30;;;0.30;;
19223;SDS011;9746;47.180;9.776;2023-04-15T20:48:24;0.30;;;0.30;;
19223;SDS011;9746;47.180;9.776;2023-04-15T20:50:53;0.30;;;0.30;;
19223;SDS011;9746;47.180;9.776;2023-04-15T20:53:20;0.30;;;0.30;;
19223;SDS011;9746;47.180;9.776;2023-04-15T20:56:04;0.30;;;0.30;;
19223;SDS011;9746;47.180;9.776;2023-04-15T20:58:33;0.30;;;0.30;;
19223;SDS011;9746;47.180;9.776;2023-04-15T21:01:00;0.30;;;0.30;;
19223;SDS011;9746;47.180;9.776;2023-04-15T21:03:29;0.30;;;0.30;;
